sensor_id;sensor_type;location;lat;lon;timestamp;pressure;altitude;pressure_sealevel;temperature;humidity
75940;BME280;75809;44.872;20.642;2024-02-26T00:02:20;99760.88;;;12.16;66.84
75940;BME280;75809;44.872;20.642;2024-02-26T00:04:46;99766.78;;;12.20;67.65
75940;BME280;75809;44.872;20.642;2024-02-26T00:07:11;99765.69;;;12.23;66.77
75940;BME280;75809;44.872;20.642;2024-02-26T00:09:37;99771.22;;;12.20;66.81
75940;BME280;75809;44.872;20.642;2024-02-26T00:12:03;99769.13;;;12.12;67.88
75940;BME280;75809;44.872;20.642;2024-02-26T00:14:32;99756.88;;;12.11;67.54
75940;BME280;75809;44.872;20.642;2024-02-26T00:16:58;99768.09;;;12.14;67.46
75940;BME280;75809;44.872;20.642;2024-02-26T00:19:23;99749.44;;;12.16;67.48
75940;BME280;75809;44.872;20.642;2024-02-26T00:21:49;99764.47;;;12.15;67.12
75940;BME280;75809;44.872;20.642;2024-02-26T00:24:14;99773.25;;;12.16;67.53
75940;BME280;75809;44.872;20.642;2024-02-26T00:26:39;99760.03;;;12.16;66.91
75940;BME280;75809;44.872;20.642;2024-02-26T00:29:05;99757.38;;;12.16;66.96
75940;BME280;75809;44.872;20.642;2024-02-26T00:31:31;99758.34;;;12.15;67.08
75940;BME280;75809;44.872;20.642;2024-02-26T00:33:56;99739.81;;;12.15;67.52
75940;BME280;75809;44.872;20.642;2024-02-26T00:36:22;99749.88;;;12.10;67.35
75940;BME280;75809;44.872;20.642;2024-02-26T00:38:47;99766.84;;;12.07;67.54
75940;BME280;75809;44.872;20.642;2024-02-26T00:41:17;99759.88;;;12.06;68.11
75940;BME280;75809;44.872;20.642;2024-02-26T00:43:42;99756.88;;;12.11;67.44
75940;BME280;75809;44.872;20.642;2024-02-26T00:46:08;99750.97;;;12.07;67.77
75940;BME280;75809;44.872;20.642;2024-02-26T00:48:33;99754.84;;;12.14;67.28
75940;BME280;75809;44.872;20.642;2024-02-26T00:50:59;99754.81;;;12.03;67.96
75940;BME280;75809;44.872;20.642;2024-02-26T00:53:25;99753.84;;;12.04;67.87
75940;BME280;75809;44.872;20.642;2024-02-26T00:55:50;99759.16;;;12.04;68.01
75940;BME280;75809;44.872;20.642;2024-02-26T00:58:16;99750.47;;;12.02;68.28
75940;BME280;75809;44.872;20.642;2024-02-26T01:00:42;99753.34;;;11.99;68.88
75940;BME280;75809;44.872;20.642;2024-02-26T01:03:07;99740.63;;;12.04;68.53
75940;BME280;75809;44.872;20.642;2024-02-26T01:05:32;99737.38;;;12.12;67.90
75940;BME280;75809;44.872;20.642;2024-02-26T01:07:59;99738.44;;;12.09;68.17
75940;BME280;75809;44.872;20.642;2024-02-26T01:10:24;99744.47;;;12.11;67.88
75940;BME280;75809;44.872;20.642;2024-02-26T01:12:50;99742.06;;;12.08;68.74
75940;BME280;75809;44.872;20.642;2024-02-26T01:15:15;99733.16;;;12.09;68.29
75940;BME280;75809;44.872;20.642;2024-02-26T01:17:41;99740.25;;;12.09;68.53
75940;BME280;75809;44.872;20.642;2024-02-26T01:20:07;99732.94;;;12.12;68.17
75940;BME280;75809;44.872;20.642;2024-02-26T01:22:34;99737.28;;;12.13;68.52
75940;BME280;75809;44.872;20.642;2024-02-26T01:24:59;99725.94;;;12.11;68.24
75940;BME280;75809;44.872;20.642;2024-02-26T01:27:25;99734.00;;;12.10;68.67
75940;BME280;75809;44.872;20.642;2024-02-26T01:29:52;99736.03;;;12.06;68.58
75940;BME280;75809;44.872;20.642;2024-02-26T01:32:18;99741.94;;;12.10;68.64
75940;BME280;75809;44.872;20.642;2024-02-26T01:34:43;99739.28;;;12.10;68.64
75940;BME280;75809;44.872;20.642;2024-02-26T01:37:08;99741.22;;;12.08;68.98
75940;BME280;75809;44.872;20.642;2024-02-26T01:39:34;99739.81;;;12.15;68.09
75940;BME280;75809;44.872;20.642;2024-02-26T01:42:00;99743.75;;;12.09;68.87
75940;BME280;75809;44.872;20.642;2024-02-26T01:44:26;99737.84;;;12.06;68.37
75940;BME280;75809;44.872;20.642;2024-02-26T01:46:52;99739.78;;;12.04;68.64
75940;BME280;75809;44.872;20.642;2024-02-26T01:49:18;99735.75;;;11.98;68.83
75940;BME280;75809;44.872;20.642;2024-02-26T01:51:45;99726.50;;;11.93;69.11
75940;BME280;75809;44.872;20.642;2024-02-26T01:54:10;99720.97;;;11.96;68.69
75940;BME280;75809;44.872;20.642;2024-02-26T01:56:37;99730.19;;;11.90;68.65
75940;BME280;75809;44.872;20.642;2024-02-26T01:59:05;99734.75;;;11.88;68.82
75940;BME280;75809;44.872;20.642;2024-02-26T02:01:31;99738.13;;;11.90;69.37
75940;BME280;75809;44.872;20.642;2024-02-26T02:04:00;99729.69;;;11.85;69.16
75940;BME280;75809;44.872;20.642;2024-02-26T02:06:26;99728.03;;;11.84;69.29
75940;BME280;75809;44.872;20.642;2024-02-26T02:08:54;99724.81;;;11.79;69.17
75940;BME280;75809;44.872;20.642;2024-02-26T02:11:20;99735.41;;;11.79;69.53
75940;BME280;75809;44.872;20.642;2024-02-26T02:13:46;99729.81;;;11.83;69.37
75940;BME280;75809;44.872;20.642;2024-02-26T02:16:12;99731.53;;;11.72;69.12
75940;BME280;75809;44.872;20.642;2024-02-26T02:18:37;99730.28;;;11.65;70.17
75940;BME280;75809;44.872;20.642;2024-02-26T02:21:03;99726.69;;;11.66;69.99
75940;BME280;75809;44.872;20.642;2024-02-26T02:23:29;99732.94;;;11.65;69.20
75940;BME280;75809;44.872;20.642;2024-02-26T02:25:56;99731.38;;;11.62;69.88
75940;BME280;75809;44.872;20.642;2024-02-26T02:28:22;99730.97;;;11.55;69.72
75940;BME280;75809;44.872;20.642;2024-02-26T02:30:48;99737.94;;;11.56;70.14
75940;BME280;75809;44.872;20.642;2024-02-26T02:33:15;99741.78;;;11.52;69.76
75940;BME280;75809;44.872;20.642;2024-02-26T02:35:41;99734.16;;;11.48;70.62
75940;BME280;75809;44.872;20.642;2024-02-26T02:38:06;99742.97;;;11.48;70.68
75940;BME280;75809;44.872;20.642;2024-02-26T02:40:32;99739.56;;;11.46;69.79
75940;BME280;75809;44.872;20.642;2024-02-26T02:42:57;99742.09;;;11.48;69.84
75940;BME280;75809;44.872;20.642;2024-02-26T02:45:23;99742.13;;;11.35;70.11
75940;BME280;75809;44.872;20.642;2024-02-26T02:47:49;99737.50;;;11.39;70.83
75940;BME280;75809;44.872;20.642;2024-02-26T02:50:14;99742.31;;;11.45;70.09
75940;BME280;75809;44.872;20.642;2024-02-26T02:52:40;99740.88;;;11.41;70.05
75940;BME280;75809;44.872;20.642;2024-02-26T02:55:06;99747.00;;;11.41;70.46
75940;BME280;75809;44.872;20.642;2024-02-26T02:57:32;99744.34;;;11.41;70.07
75940;BME280;75809;44.872;20.642;2024-02-26T02:59:58;99752.72;;;11.35;70.89
75940;BME280;75809;44.872;20.642;2024-02-26T03:02:23;99753.44;;;11.37;70.23
75940;BME280;75809;44.872;20.642;2024-02-26T03:04:52;99750.28;;;11.32;71.07
75940;BME280;75809;44.872;20.642;2024-02-26T03:07:17;99756.94;;;11.38;69.85
75940;BME280;75809;44.872;20.642;2024-02-26T03:09:43;99762.31;;;11.36;70.63
75940;BME280;75809;44.872;20.642;2024-02-26T03:12:08;99758.72;;;11.37;70.35
75940;BME280;75809;44.872;20.642;2024-02-26T03:14:34;99746.81;;;11.32;70.07
75940;BME280;75809;44.872;20.642;2024-02-26T03:16:59;99744.03;;;11.33;70.16
75940;BME280;75809;44.872;20.642;2024-02-26T03:19:25;99743.94;;;11.35;70.51
75940;BME280;75809;44.872;20.642;2024-02-26T03:21:51;99737.06;;;11.32;70.29
75940;BME280;75809;44.872;20.642;2024-02-26T03:24:16;99747.47;;;11.22;70.78
75940;BME280;75809;44.872;20.642;2024-02-26T03:26:42;99739.66;;;11.21;70.95
75940;BME280;75809;44.872;20.642;2024-02-26T03:29:07;99745.34;;;11.15;71.13
75940;BME280;75809;44.872;20.642;2024-02-26T03:31:32;99748.75;;;11.17;70.80
75940;BME280;75809;44.872;20.642;2024-02-26T03:33:58;99745.06;;;11.07;70.80
75940;BME280;75809;44.872;20.642;2024-02-26T03:36:23;99745.81;;;11.09;71.10
75940;BME280;75809;44.872;20.642;2024-02-26T03:38:49;99737.66;;;11.12;70.65
75940;BME280;75809;44.872;20.642;2024-02-26T03:41:14;99743.91;;;11.11;70.12
75940;BME280;75809;44.872;20.642;2024-02-26T03:43:40;99748.78;;;10.91;71.56
75940;BME280;75809;44.872;20.642;2024-02-26T03:46:09;99750.91;;;10.86;71.60
75940;BME280;75809;44.872;20.642;2024-02-26T03:48:36;99749.22;;;10.85;71.58
75940;BME280;75809;44.872;20.642;2024-02-26T03:51:02;99749.84;;;10.89;71.25
75940;BME280;75809;44.872;20.642;2024-02-26T03:53:27;99758.06;;;10.84;71.42
75940;BME280;75809;44.872;20.642;2024-02-26T03:55:53;99744.44;;;10.90;71.53
75940;BME280;75809;44.872;20.642;2024-02-26T03:58:20;99743.94;;;10.85;71.59
75940;BME280;75809;44.872;20.642;2024-02-26T04:00:46;99745.28;;;10.91;71.41
75940;BME280;75809;44.872;20.642;2024-02-26T04:03:13;99753.75;;;10.83;71.37
75940;BME280;75809;44.872;20.642;2024-02-26T04:05:38;99732.94;;;10.79;71.75
75940;BME280;75809;44.872;20.642;2024-02-26T04:08:05;99741.19;;;10.74;72.03
75940;BME280;75809;44.872;20.642;2024-02-26T04:10:32;99742.88;;;10.75;72.38
75940;BME280;75809;44.872;20.642;2024-02-26T04:13:00;99735.06;;;10.61;72.83
75940;BME280;75809;44.872;20.642;2024-02-26T04:15:25;99748.06;;;10.64;73.32
75940;BME280;75809;44.872;20.642;2024-02-26T04:17:51;99745.72;;;10.59;72.78
75940;BME280;75809;44.872;20.642;2024-02-26T04:20:16;99754.50;;;10.60;73.20
75940;BME280;75809;44.872;20.642;2024-02-26T04:22:42;99754.28;;;10.63;72.63
75940;BME280;75809;44.872;20.642;2024-02-26T04:25:08;99743.53;;;10.66;73.02
75940;BME280;75809;44.872;20.642;2024-02-26T04:27:33;99754.28;;;10.63;73.69
75940;BME280;75809;44.872;20.642;2024-02-26T04:29:59;99737.81;;;10.59;73.25
75940;BME280;75809;44.872;20.642;2024-02-26T04:32:24;99738.88;;;10.57;73.42
75940;BME280;75809;44.872;20.642;2024-02-26T04:34:50;99743.94;;;10.60;73.44
75940;BME280;75809;44.872;20.642;2024-02-26T04:37:15;99742.47;;;10.68;73.53
75940;BME280;75809;44.872;20.642;2024-02-26T04:39:41;99751.97;;;10.58;73.82
75940;BME280;75809;44.872;20.642;2024-02-26T04:42:06;99745.22;;;10.67;73.78
75940;BME280;75809;44.872;20.642;2024-02-26T04:44:32;99752.28;;;10.66;73.95
75940;BME280;75809;44.872;20.642;2024-02-26T04:46:58;99754.81;;;10.68;73.39
75940;BME280;75809;44.872;20.642;2024-02-26T04:49:23;99760.63;;;10.60;73.09
75940;BME280;75809;44.872;20.642;2024-02-26T04:51:49;99757.25;;;10.58;73.63
75940;BME280;75809;44.872;20.642;2024-02-26T04:54:15;99753.34;;;10.64;73.29
75940;BME280;75809;44.872;20.642;2024-02-26T04:56:40;99740.22;;;10.62;72.72
75940;BME280;75809;44.872;20.642;2024-02-26T04:59:06;99735.06;;;10.61;73.59
75940;BME280;75809;44.872;20.642;2024-02-26T05:01:31;99742.03;;;10.62;73.11
75940;BME280;75809;44.872;20.642;2024-02-26T05:03:57;99748.47;;;10.58;73.13
75940;BME280;75809;44.872;20.642;2024-02-26T05:06:22;99753.44;;;10.62;73.41
75940;BME280;75809;44.872;20.642;2024-02-26T05:08:48;99756.63;;;10.67;73.01
75940;BME280;75809;44.872;20.642;2024-02-26T05:11:13;99752.59;;;10.62;72.69
75940;BME280;75809;44.872;20.642;2024-02-26T05:13:38;99755.56;;;10.57;73.31
75940;BME280;75809;44.872;20.642;2024-02-26T05:16:04;99750.59;;;10.53;72.56
75940;BME280;75809;44.872;20.642;2024-02-26T05:18:30;99761.56;;;10.47;72.98
75940;BME280;75809;44.872;20.642;2024-02-26T05:20:56;99766.75;;;10.48;72.63
75940;BME280;75809;44.872;20.642;2024-02-26T05:23:21;99764.44;;;10.43;72.77
75940;BME280;75809;44.872;20.642;2024-02-26T05:25:48;99765.91;;;10.48;72.95
75940;BME280;75809;44.872;20.642;2024-02-26T05:28:14;99773.50;;;10.52;72.81
75940;BME280;75809;44.872;20.642;2024-02-26T05:30:41;99775.84;;;10.44;73.04
75940;BME280;75809;44.872;20.642;2024-02-26T05:33:07;99768.41;;;10.36;72.84
75940;BME280;75809;44.872;20.642;2024-02-26T05:35:32;99780.44;;;10.40;72.64
75940;BME280;75809;44.872;20.642;2024-02-26T05:37:58;99765.69;;;10.51;73.00
75940;BME280;75809;44.872;20.642;2024-02-26T05:40:23;99775.00;;;10.56;71.95
75940;BME280;75809;44.872;20.642;2024-02-26T05:42:49;99764.09;;;10.61;72.52
75940;BME280;75809;44.872;20.642;2024-02-26T05:45:14;99781.44;;;10.65;72.24
75940;BME280;75809;44.872;20.642;2024-02-26T05:47:40;99779.66;;;10.65;72.10
75940;BME280;75809;44.872;20.642;2024-02-26T05:50:10;99761.91;;;10.67;71.11
75940;BME280;75809;44.872;20.642;2024-02-26T05:52:37;99779.66;;;10.78;71.92
75940;BME280;75809;44.872;20.642;2024-02-26T05:55:04;99772.69;;;10.77;71.56
75940;BME280;75809;44.872;20.642;2024-02-26T05:57:31;99785.25;;;10.86;70.83
75940;BME280;75809;44.872;20.642;2024-02-26T05:59:57;99785.88;;;10.90;71.28
75940;BME280;75809;44.872;20.642;2024-02-26T06:02:22;99781.56;;;10.89;71.19
75940;BME280;75809;44.872;20.642;2024-02-26T06:04:48;99772.16;;;10.97;70.75
75940;BME280;75809;44.872;20.642;2024-02-26T06:07:13;99774.44;;;11.02;70.41
75940;BME280;75809;44.872;20.642;2024-02-26T06:09:38;99769.06;;;11.04;70.33
75940;BME280;75809;44.872;20.642;2024-02-26T06:12:05;99775.00;;;11.07;70.65
75940;BME280;75809;44.872;20.642;2024-02-26T06:14:30;99778.13;;;11.12;70.39
75940;BME280;75809;44.872;20.642;2024-02-26T06:16:56;99787.44;;;11.18;69.76
75940;BME280;75809;44.872;20.642;2024-02-26T06:19:21;99790.72;;;11.21;69.81
75940;BME280;75809;44.872;20.642;2024-02-26T06:21:47;99802.34;;;11.32;69.91
75940;BME280;75809;44.872;20.642;2024-02-26T06:24:12;99801.50;;;11.31;69.58
75940;BME280;75809;44.872;20.642;2024-02-26T06:26:37;99811.72;;;11.36;69.03
75940;BME280;75809;44.872;20.642;2024-02-26T06:29:03;99814.44;;;11.47;69.20
75940;BME280;75809;44.872;20.642;2024-02-26T06:31:28;99818.47;;;11.52;69.05
75940;BME280;75809;44.872;20.642;2024-02-26T06:33:54;99811.69;;;11.61;68.50
75940;BME280;75809;44.872;20.642;2024-02-26T06:36:21;99816.75;;;11.64;68.82
75940;BME280;75809;44.872;20.642;2024-02-26T06:38:46;99806.59;;;11.71;67.61
75940;BME280;75809;44.872;20.642;2024-02-26T06:41:12;99818.63;;;11.75;68.23
75940;BME280;75809;44.872;20.642;2024-02-26T06:43:37;99827.97;;;11.80;67.46
75940;BME280;75809;44.872;20.642;2024-02-26T06:46:03;99830.03;;;11.88;68.04
75940;BME280;75809;44.872;20.642;2024-02-26T06:48:28;99815.53;;;11.94;67.40
75940;BME280;75809;44.872;20.642;2024-02-26T06:50:54;99821.72;;;12.05;67.57
75940;BME280;75809;44.872;20.642;2024-02-26T06:53:19;99827.13;;;12.04;67.21
75940;BME280;75809;44.872;20.642;2024-02-26T06:55:45;99819.69;;;12.09;67.01
75940;BME280;75809;44.872;20.642;2024-02-26T06:58:10;99805.16;;;12.14;66.75
75940;BME280;75809;44.872;20.642;2024-02-26T07:00:36;99826.50;;;12.24;66.62
75940;BME280;75809;44.872;20.642;2024-02-26T07:03:01;99814.47;;;12.31;66.48
75940;BME280;75809;44.872;20.642;2024-02-26T07:05:27;99813.31;;;12.35;65.96
75940;BME280;75809;44.872;20.642;2024-02-26T07:07:53;99811.72;;;12.33;66.33
75940;BME280;75809;44.872;20.642;2024-02-26T07:10:18;99822.56;;;12.41;65.95
75940;BME280;75809;44.872;20.642;2024-02-26T07:12:44;99822.50;;;12.54;66.02
75940;BME280;75809;44.872;20.642;2024-02-26T07:15:10;99816.50;;;12.63;65.27
75940;BME280;75809;44.872;20.642;2024-02-26T07:17:35;99824.13;;;12.67;65.08
75940;BME280;75809;44.872;20.642;2024-02-26T07:20:01;99824.34;;;12.64;65.08
75940;BME280;75809;44.872;20.642;2024-02-26T07:22:29;99828.09;;;12.73;64.75
75940;BME280;75809;44.872;20.642;2024-02-26T07:24:55;99817.03;;;12.79;64.62
75940;BME280;75809;44.872;20.642;2024-02-26T07:27:21;99819.09;;;12.87;64.08
75940;BME280;75809;44.872;20.642;2024-02-26T07:29:46;99816.22;;;13.01;63.54
75940;BME280;75809;44.872;20.642;2024-02-26T07:32:12;99822.38;;;13.01;63.44
75940;BME280;75809;44.872;20.642;2024-02-26T07:34:37;99834.28;;;12.96;63.74
75940;BME280;75809;44.872;20.642;2024-02-26T07:37:07;99822.00;;;13.06;63.19
75940;BME280;75809;44.872;20.642;2024-02-26T07:39:32;99823.34;;;13.12;63.33
75940;BME280;75809;44.872;20.642;2024-02-26T07:41:58;99843.03;;;13.20;62.73
75940;BME280;75809;44.872;20.642;2024-02-26T07:44:23;99836.50;;;13.36;62.25
75940;BME280;75809;44.872;20.642;2024-02-26T07:46:49;99825.19;;;13.45;61.61
75940;BME280;75809;44.872;20.642;2024-02-26T07:49:15;99825.44;;;13.53;61.06
75940;BME280;75809;44.872;20.642;2024-02-26T07:51:40;99833.97;;;13.68;60.85
75940;BME280;75809;44.872;20.642;2024-02-26T07:54:06;99808.75;;;13.73;60.21
75940;BME280;75809;44.872;20.642;2024-02-26T07:56:31;99826.22;;;13.87;59.87
75940;BME280;75809;44.872;20.642;2024-02-26T07:58:57;99825.81;;;13.92;60.26
75940;BME280;75809;44.872;20.642;2024-02-26T08:01:22;99814.94;;;14.06;59.32
75940;BME280;75809;44.872;20.642;2024-02-26T08:03:48;99813.56;;;14.11;58.72
75940;BME280;75809;44.872;20.642;2024-02-26T08:06:13;99795.66;;;14.25;58.64
75940;BME280;75809;44.872;20.642;2024-02-26T08:08:39;99822.13;;;14.26;58.30
75940;BME280;75809;44.872;20.642;2024-02-26T08:11:04;99800.34;;;14.32;58.38
75940;BME280;75809;44.872;20.642;2024-02-26T08:13:30;99798.91;;;14.28;58.19
75940;BME280;75809;44.872;20.642;2024-02-26T08:15:56;99814.59;;;14.31;58.26
75940;BME280;75809;44.872;20.642;2024-02-26T08:18:21;99818.31;;;14.40;58.31
75940;BME280;75809;44.872;20.642;2024-02-26T08:20:47;99814.91;;;14.49;57.50
75940;BME280;75809;44.872;20.642;2024-02-26T08:23:14;99804.72;;;14.54;57.56
75940;BME280;75809;44.872;20.642;2024-02-26T08:25:39;99799.19;;;14.57;57.24
75940;BME280;75809;44.872;20.642;2024-02-26T08:28:05;99803.13;;;14.63;57.71
75940;BME280;75809;44.872;20.642;2024-02-26T08:30:30;99798.91;;;14.60;57.30
75940;BME280;75809;44.872;20.642;2024-02-26T08:32:56;99807.19;;;14.67;57.59
75940;BME280;75809;44.872;20.642;2024-02-26T08:35:21;99810.19;;;14.73;56.95
75940;BME280;75809;44.872;20.642;2024-02-26T08:37:47;99810.81;;;14.87;56.68
75940;BME280;75809;44.872;20.642;2024-02-26T08:40:14;99799.72;;;15.02;56.08
75940;BME280;75809;44.872;20.642;2024-02-26T08:42:39;99797.69;;;15.16;55.84
75940;BME280;75809;44.872;20.642;2024-02-26T08:45:05;99783.22;;;15.09;55.09
75940;BME280;75809;44.872;20.642;2024-02-26T08:47:32;99797.94;;;15.13;55.41
75940;BME280;75809;44.872;20.642;2024-02-26T08:49:57;99783.97;;;15.20;55.18
75940;BME280;75809;44.872;20.642;2024-02-26T08:52:23;99782.03;;;15.22;54.41
75940;BME280;75809;44.872;20.642;2024-02-26T08:54:49;99783.88;;;15.31;53.92
75940;BME280;75809;44.872;20.642;2024-02-26T08:57:15;99779.69;;;15.39;54.17
75940;BME280;75809;44.872;20.642;2024-02-26T08:59:40;99787.28;;;15.43;54.21
75940;BME280;75809;44.872;20.642;2024-02-26T09:02:06;99769.50;;;15.44;53.57
75940;BME280;75809;44.872;20.642;2024-02-26T09:04:33;99757.03;;;15.44;53.28
75940;BME280;75809;44.872;20.642;2024-02-26T09:06:59;99778.59;;;15.51;53.31
75940;BME280;75809;44.872;20.642;2024-02-26T09:09:24;99779.44;;;15.51;53.25
75940;BME280;75809;44.872;20.642;2024-02-26T09:11:51;99784.53;;;15.54;53.08
75940;BME280;75809;44.872;20.642;2024-02-26T09:14:18;99765.88;;;15.54;53.12
75940;BME280;75809;44.872;20.642;2024-02-26T09:16:44;99776.69;;;15.62;52.48
75940;BME280;75809;44.872;20.642;2024-02-26T09:19:09;99754.81;;;15.59;52.22
75940;BME280;75809;44.872;20.642;2024-02-26T09:21:34;99771.06;;;15.56;52.35
75940;BME280;75809;44.872;20.642;2024-02-26T09:24:00;99770.56;;;15.72;51.84
75940;BME280;75809;44.872;20.642;2024-02-26T09:26:25;99772.81;;;15.67;52.01
75940;BME280;75809;44.872;20.642;2024-02-26T09:28:51;99775.75;;;15.73;51.66
75940;BME280;75809;44.872;20.642;2024-02-26T09:31:17;99782.06;;;15.82;51.71
75940;BME280;75809;44.872;20.642;2024-02-26T09:33:43;99769.91;;;15.89;51.23
75940;BME280;75809;44.872;20.642;2024-02-26T09:36:09;99766.69;;;15.95;50.93
75940;BME280;75809;44.872;20.642;2024-02-26T09:38:36;99764.97;;;15.94;50.51
75940;BME280;75809;44.872;20.642;2024-02-26T09:41:04;99770.06;;;16.07;50.57
75940;BME280;75809;44.872;20.642;2024-02-26T09:43:35;99748.03;;;16.14;50.66
75940;BME280;75809;44.872;20.642;2024-02-26T09:46:05;99754.34;;;16.23;50.43
75940;BME280;75809;44.872;20.642;2024-02-26T09:48:32;99741.69;;;16.35;49.79
75940;BME280;75809;44.872;20.642;2024-02-26T09:51:01;99748.44;;;16.39;49.13
75940;BME280;75809;44.872;20.642;2024-02-26T09:53:29;99752.91;;;16.48;49.26
75940;BME280;75809;44.872;20.642;2024-02-26T09:55:57;99767.19;;;16.57;49.09
75940;BME280;75809;44.872;20.642;2024-02-26T09:58:23;99763.28;;;16.70;48.48
75940;BME280;75809;44.872;20.642;2024-02-26T10:00:53;99746.41;;;16.80;48.10
75940;BME280;75809;44.872;20.642;2024-02-26T10:03:22;99742.88;;;16.89;47.43
75940;BME280;75809;44.872;20.642;2024-02-26T10:05:50;99752.13;;;16.94;47.65
75940;BME280;75809;44.872;20.642;2024-02-26T10:08:16;99743.50;;;17.10;47.03
75940;BME280;75809;44.872;20.642;2024-02-26T10:10:44;99755.28;;;17.17;46.56
75940;BME280;75809;44.872;20.642;2024-02-26T10:13:10;99758.06;;;17.25;46.51
75940;BME280;75809;44.872;20.642;2024-02-26T10:15:37;99736.59;;;17.45;45.88
75940;BME280;75809;44.872;20.642;2024-02-26T10:18:06;99746.97;;;17.48;45.50
75940;BME280;75809;44.872;20.642;2024-02-26T10:20:32;99754.53;;;17.52;45.23
75940;BME280;75809;44.872;20.642;2024-02-26T10:23:01;99758.09;;;17.71;45.42
75940;BME280;75809;44.872;20.642;2024-02-26T10:25:27;99724.66;;;17.84;44.10
75940;BME280;75809;44.872;20.642;2024-02-26T10:27:52;99739.13;;;17.91;43.88
75940;BME280;75809;44.872;20.642;2024-02-26T10:30:22;99729.78;;;17.96;43.66
75940;BME280;75809;44.872;20.642;2024-02-26T10:32:51;99721.50;;;17.99;43.65
75940;BME280;75809;44.872;20.642;2024-02-26T10:35:17;99732.69;;;18.20;43.84
75940;BME280;75809;44.872;20.642;2024-02-26T10:37:44;99690.03;;;18.36;42.69
75940;BME280;75809;44.872;20.642;2024-02-26T10:40:13;99717.34;;;18.48;42.95
75940;BME280;75809;44.872;20.642;2024-02-26T10:42:40;99716.25;;;18.59;42.39
75940;BME280;75809;44.872;20.642;2024-02-26T10:45:06;99684.47;;;18.56;42.58
75940;BME280;75809;44.872;20.642;2024-02-26T10:47:36;99683.13;;;18.52;42.21
75940;BME280;75809;44.872;20.642;2024-02-26T10:50:04;99704.97;;;18.65;42.21
75940;BME280;75809;44.872;20.642;2024-02-26T10:52:32;99702.75;;;18.86;41.61
75940;BME280;75809;44.872;20.642;2024-02-26T10:55:02;99707.16;;;18.95;41.31
75940;BME280;75809;44.872;20.642;2024-02-26T10:57:33;99709.53;;;19.06;41.14
75940;BME280;75809;44.872;20.642;2024-02-26T11:00:00;99693.19;;;19.18;40.80
75940;BME280;75809;44.872;20.642;2024-02-26T11:02:26;99694.75;;;19.36;40.42
75940;BME280;75809;44.872;20.642;2024-02-26T11:04:53;99678.72;;;19.53;40.10
75940;BME280;75809;44.872;20.642;2024-02-26T11:07:20;99689.00;;;19.57;39.64
75940;BME280;75809;44.872;20.642;2024-02-26T11:09:46;99697.38;;;19.71;39.52
75940;BME280;75809;44.872;20.642;2024-02-26T11:12:18;99690.00;;;19.73;39.21
75940;BME280;75809;44.872;20.642;2024-02-26T11:14:45;99673.59;;;19.84;38.94
75940;BME280;75809;44.872;20.642;2024-02-26T11:17:13;99673.59;;;19.84;38.99
75940;BME280;75809;44.872;20.642;2024-02-26T11:19:39;99687.19;;;19.90;39.08
75940;BME280;75809;44.872;20.642;2024-02-26T11:22:07;99657.84;;;20.05;38.95
75940;BME280;75809;44.872;20.642;2024-02-26T11:24:32;99669.59;;;20.04;38.45
75940;BME280;75809;44.872;20.642;2024-02-26T11:27:01;99674.78;;;20.06;38.12
75940;BME280;75809;44.872;20.642;2024-02-26T11:29:33;99687.69;;;20.27;38.08
75940;BME280;75809;44.872;20.642;2024-02-26T11:32:01;99674.78;;;20.46;37.66
75940;BME280;75809;44.872;20.642;2024-02-26T11:34:27;99657.47;;;20.57;36.29
75940;BME280;75809;44.872;20.642;2024-02-26T11:36:53;99675.25;;;20.66;36.14
75940;BME280;75809;44.872;20.642;2024-02-26T11:39:19;99663.31;;;20.77;35.46
75940;BME280;75809;44.872;20.642;2024-02-26T11:41:46;99664.13;;;20.86;35.55
75940;BME280;75809;44.872;20.642;2024-02-26T11:44:11;99660.00;;;21.06;35.45
75940;BME280;75809;44.872;20.642;2024-02-26T11:46:41;99664.63;;;21.20;35.58
75940;BME280;75809;44.872;20.642;2024-02-26T11:49:37;99646.44;;;21.39;34.65
75940;BME280;75809;44.872;20.642;2024-02-26T11:52:06;99652.06;;;21.52;34.60
75940;BME280;75809;44.872;20.642;2024-02-26T11:54:45;99654.28;;;21.71;34.17
75940;BME280;75809;44.872;20.642;2024-02-26T11:57:24;99660.41;;;22.03;34.26
75940;BME280;75809;44.872;20.642;2024-02-26T11:59:57;99654.25;;;22.55;33.49
75940;BME280;75809;44.872;20.642;2024-02-26T12:05:17;99638.31;;;24.19;30.20
75940;BME280;75809;44.872;20.642;2024-02-26T12:07:49;99646.19;;;24.76;29.03
75940;BME280;75809;44.872;20.642;2024-02-26T12:10:21;99627.75;;;25.21;28.32
75940;BME280;75809;44.872;20.642;2024-02-26T12:12:53;99630.59;;;25.74;28.41
75940;BME280;75809;44.872;20.642;2024-02-26T12:15:19;99640.78;;;26.25;27.50
75940;BME280;75809;44.872;20.642;2024-02-26T12:17:48;99633.25;;;26.80;26.26
75940;BME280;75809;44.872;20.642;2024-02-26T12:20:16;99625.47;;;27.42;25.79
75940;BME280;75809;44.872;20.642;2024-02-26T12:22:45;99635.91;;;28.08;24.97
75940;BME280;75809;44.872;20.642;2024-02-26T12:25:13;99625.84;;;28.58;23.91
75940;BME280;75809;44.872;20.642;2024-02-26T12:27:38;99632.50;;;28.62;24.37
75940;BME280;75809;44.872;20.642;2024-02-26T12:30:04;99645.47;;;28.42;23.86
75940;BME280;75809;44.872;20.642;2024-02-26T12:32:32;99629.50;;;29.07;22.94
75940;BME280;75809;44.872;20.642;2024-02-26T12:34:58;99625.34;;;29.34;22.62
75940;BME280;75809;44.872;20.642;2024-02-26T12:37:25;99620.28;;;29.56;22.76
75940;BME280;75809;44.872;20.642;2024-02-26T12:39:50;99617.00;;;29.36;22.55
75940;BME280;75809;44.872;20.642;2024-02-26T12:42:16;99624.91;;;29.37;22.38
75940;BME280;75809;44.872;20.642;2024-02-26T12:44:41;99629.56;;;29.67;22.04
75940;BME280;75809;44.872;20.642;2024-02-26T12:47:07;99619.84;;;30.36;21.82
75940;BME280;75809;44.872;20.642;2024-02-26T12:49:32;99619.22;;;30.58;21.43